Terminal Aerodrome Forecast
Issued by NWS Green Bay, WI

Home | Current Version | Previous Version | Text Only | Print | Product List | Glossary Off
Versions: 1 2 3 4 5 6 7 8 9 10 11 12 13 14 15 16 17 18 19 20 21 22 23 24 25 26 27 28 29 30 31 32 33 34 35 36 37 38 39 40 41 42 43 44 45 46 47 48 49 50

522
FTUS43 KGRB 222107 CCA
TAFGRB
TAF COR
KGRB 222107Z 2221/2318 22004KT 3SM -DZ BR OVC003
      TEMPO 2221/2301 1/2SM FG OVC003
     FM230100 29003KT 1SM BR BKN003
     FM230300 30003KT 1/4SM -DZ FG OVC002
     FM231500 32004KT 1SM BR OVC003
     FM231700 33005KT 4SM BR OVC007=

USA.gov is the U.S. government's official web portal to all federal, state and local government web resources and services.